Erie, PA (16506)

9:03 AM EDT op 24 mei 2015 (GMT -0400)
CARTER`S Lawn Care | | Change Station
CLOSE
Current Station
Persoonlijk weerstation
Location: Erie, PA
Geometrische hoogte: 836 ft
Nabije weerstations

Hoogte 836 ft 42.07 °N, 80.16 °W | Updated 1 minute ago

Clear
Helder
68.0 °F
Voelt als 68.0 °F
N
0.0
Wind Variabel Wind van ZZO
Gusts 1.0 mijl/u

Vandaag
Hoog -- | Laag -- °F
--% Kans op neerslag
Gisteren
Hoog -- | Laag -- °F
Precip. -- inches
5:52 AM 8:43 PM
Wassende halvemaan, 39% visible
Druk 30.30 inches
Zicht 10.0 mijlen
Wolken Helder
Dauwpunt 54 °F
Vochtigheid 60%
Neerslag 0.00 inches
Dikte sneeuw Niet beschikbaar.
UV 3 van de 12
Pollen 9.30 van de 12
Luchtkwaliteit Niet beschikbaar.
Flu Activity Sporadic
METAR KERI 241251Z 19008KT 10SM CLR 20/06 A3031 RMK AO2 SLP261 T02000056

More Conditions Fewer Conditions

Druk 30.30 inches
Zicht 10.0 mijlen
Wolken Helder
Dauwpunt 54 °F
Vochtigheid 60%
Neerslag 0.00 inches
Dikte sneeuw Niet beschikbaar.
UV 3 van de 12
Pollen 9.30 van de 12
Luchtkwaliteit Niet beschikbaar.
Flu Activity Sporadic
METAR KERI 241251Z 19008KT 10SM CLR 20/06 A3031 RMK AO2 SLP261 T02000056

More Conditions Fewer Conditions

10-Day Weather Forecast

Almanac

Astronomie

May. 24, 2015 Opkomst Ondergang
Werkelijke tijd
Burgerlijke schemering
Nautische schemering
Astronomische schemering
Maan
Golflengte van het zichtbare licht
Daglengte
Tomorrow will be .
, % of the Moon is Illuminated

Extremen vandaag

State Highs State Lows

Community

WunderPhotos

Upload Photos

1,823,730 foto’s ge-upload!

WunderBlogs® & News

Nearby

Luchtkwaliteit

  Luchtkwaliteit LK-index Verontreinigende stof
Not available.

Dikte sneeuw

Station Depth Geometrische hoogte

Aardbevingen

Stad Distance Mag. Time & Date
Minimum magnitude displayed is 2.5.

Watertemperatuur langs de kust

Plaats Temperatuur

Stations

Nabije weerstations

Locatie station Temp. Gevoelstemperatuur Dauwpunt Vochtigheid Wind Precip. Hoogte Geactualiseerd Type